Decoded Metar for FMMI (ANTANANARIVO in MADAGASCAR) (IATA:TNR) | Meteo·Mobile Aviation Weather
aviador You're here:

FMMI Decoded Metar

ANTANANARIVO in MADAGASCAR
Report Time2019-04-19 22:30:00
UTC Time2019-04-19 22:50:45
Flight Rules mvfr MVFR
Wind080° at 05 kt
W.Decomp.*RWY 11: 4.8 kt HW 1.3 kt LCW
Visibility9999 m
Phenomena:N/A
Clouds:Few 017 Hf
Broken 020 Hf
Expected CloudBase > 800 ft AGL from Temp-Dew spread
Ceiling2,000 ft
Temp19°C (ISA +12)
Dew Point17°C (88% RH)
QNH1021 hPa
Density Alt5,623 ft
Elevation4,186 ft
Report Wrong Elevation
Raw Report
METAR FMMI 192230Z 08005KT 9999 FEW017 BKN020 19/17 Q1021 NOSIG=

Extra information for FMMI:More info

Metar Taf Metar & Taf Last 4 Metars F.Rules Stats Wind Profile Meteogram Temp Stats Airport Information Weather charts Add Link Nearby VenuesMetar ALERT Operation Metar Decoded Social comments